LLIB/RPN METAR and TAF weather

Enter ICAO airport designator
Station Type Date Time Source
LLIB METAR 2019/06/18 14:50 UTC NOAA

LLIB 181450Z 32008KT 9999 FEW035 28/16 Q1012


Station Type Date Time Source
LLIB Decoded METAR 2019/06/18 14:50 UTC NOAA

Galilee / Pina, Israel (LLIB) 32-58-48N 035-34-12E
Jun 18, 2019 - 10:50 AM EDT / 2019.06.18 1450 UTC
Wind: from the NW (320 degrees) at 9 MPH (8 KT):0
Visibility: greater than 7 mile(s):0
Sky conditions: mostly clear
Temperature: 82 F (28 C)
Dew Point: 60 F (16 C)
Relative Humidity: 48%
Pressure (altimeter): 29.88 in. Hg (1012 hPa)
ob: LLIB 181450Z 32008KT 9999 FEW035 28/16 Q1012
cycle: 15

Station Type Date Time Source
LLIB TAF 2019/06/18 12:33 UTC NOAA

TAF
AMD LLIB 181529Z 1812/1912 CNL

Example: see airport list